Airport View

Enter ICAO identifier to see the current METAR for that AWOS.

KFNL for example

KPIT 270151Z 32003KT 3SM BR BKN004 OVC029 01/00 A3000

27 Nov 2014 02:35

Phone: 412-472-0145

Other Area AWOS: KAGC - KBVI - KBTP - KAFJ

TAF KPIT 262333Z 2700/2806 33004KT 3SM BR OVC005 FM270600 33003KT 3SM BR OVC010 FM271600 30010KT P6SM OVC025